createdAt,value
2018-01-30T00:01:10.916Z,3.70
2018-01-30T00:03:39.875Z,3.50
2018-01-30T00:06:08.826Z,3.50
2018-01-30T00:08:37.012Z,3.40
2018-01-30T00:11:05.179Z,3.40
2018-01-30T00:13:33.367Z,3.40
2018-01-30T00:16:01.645Z,3.30
2018-01-30T00:18:29.817Z,3.30
2018-01-30T00:20:57.993Z,3.20
2018-01-30T00:23:26.165Z,3.20
2018-01-30T00:25:54.333Z,3.10
2018-01-30T00:28:22.559Z,3.10
2018-01-30T00:30:50.737Z,3.00
2018-01-30T00:33:18.922Z,3.00
2018-01-30T00:35:47.133Z,3.00
2018-01-30T00:38:15.314Z,2.90
2018-01-30T00:40:43.487Z,2.90
2018-01-30T00:43:11.683Z,2.90
2018-01-30T00:45:39.881Z,2.80
2018-01-30T00:48:08.043Z,2.80
2018-01-30T00:50:36.249Z,2.80
2018-01-30T00:53:04.417Z,2.80
2018-01-30T00:55:32.732Z,2.70
2018-01-30T00:58:01.694Z,3.10
2018-01-30T01:00:29.887Z,3.00
2018-01-30T01:02:58.090Z,3.00
2018-01-30T01:05:26.342Z,2.90
2018-01-30T01:07:54.523Z,2.80
2018-01-30T01:10:22.712Z,2.80
2018-01-30T01:12:50.926Z,2.80
2018-01-30T01:15:19.122Z,2.90
2018-01-30T01:17:48.100Z,2.80
2018-01-30T01:20:16.348Z,2.70
2018-01-30T01:22:44.546Z,2.70
2018-01-30T01:25:12.753Z,2.60
2018-01-30T01:27:40.961Z,2.50
2018-01-30T01:30:09.148Z,2.50
2018-01-30T01:32:37.426Z,2.40
2018-01-30T01:35:05.649Z,2.40
2018-01-30T01:37:34.604Z,2.40
2018-01-30T01:40:02.832Z,2.30
2018-01-30T01:42:31.819Z,2.30
2018-01-30T01:45:00.766Z,2.30
2018-01-30T01:47:28.944Z,2.30
2018-01-30T01:49:57.172Z,2.20
2018-01-30T01:52:26.119Z,2.10
2018-01-30T01:54:54.285Z,2.10
2018-01-30T01:57:22.471Z,2.10
2018-01-30T01:59:50.690Z,2.00
2018-01-30T02:02:18.945Z,2.00
2018-01-30T02:04:47.148Z,2.00
2018-01-30T02:07:15.313Z,2.00
2018-01-30T02:09:44.259Z,2.00
2018-01-30T02:12:12.473Z,1.90
2018-01-30T02:14:40.809Z,2.00
2018-01-30T02:17:09.017Z,1.90
2018-01-30T02:19:37.235Z,1.90
2018-01-30T02:22:06.167Z,1.90
2018-01-30T02:24:34.372Z,1.90
2018-01-30T02:27:02.590Z,1.90
2018-01-30T02:29:30.777Z,1.90
2018-01-30T02:31:58.961Z,1.80
2018-01-30T02:34:27.172Z,1.80
2018-01-30T02:36:55.345Z,1.80
2018-01-30T02:39:23.507Z,1.70
2018-01-30T02:41:51.717Z,1.70
2018-01-30T02:44:20.660Z,1.70
2018-01-30T02:46:48.867Z,1.70
2018-01-30T02:49:17.070Z,1.70
2018-01-30T02:51:46.015Z,1.60
2018-01-30T02:54:14.191Z,1.60
2018-01-30T02:56:42.385Z,1.60
2018-01-30T02:59:10.562Z,1.60
2018-01-30T03:01:38.727Z,1.60
2018-01-30T03:04:06.944Z,1.60
2018-01-30T03:06:35.883Z,1.60
2018-01-30T03:09:04.048Z,1.50
2018-01-30T03:11:32.304Z,1.50
2018-01-30T03:14:00.514Z,1.50
2018-01-30T03:16:28.694Z,1.60
2018-01-30T03:18:56.900Z,1.50
2018-01-30T03:21:26.444Z,1.50
2018-01-30T03:23:54.623Z,1.50
2018-01-30T03:26:22.856Z,1.50
2018-01-30T03:28:51.028Z,1.50
2018-01-30T03:31:19.194Z,1.40
2018-01-30T03:33:47.410Z,1.40
2018-01-30T03:36:15.589Z,1.40
2018-01-30T03:38:43.768Z,1.40
2018-01-30T03:41:12.738Z,1.30
2018-01-30T03:43:40.965Z,1.30
2018-01-30T03:46:09.150Z,1.20
2018-01-30T03:48:37.394Z,1.20
2018-01-30T03:51:05.617Z,1.20
2018-01-30T03:53:33.939Z,1.20
2018-01-30T03:56:02.144Z,1.20
2018-01-30T03:58:30.320Z,1.20
2018-01-30T04:00:58.496Z,1.30
2018-01-30T04:03:26.726Z,1.30
2018-01-30T04:05:55.672Z,1.40
2018-01-30T04:08:23.870Z,1.40
2018-01-30T04:10:52.090Z,1.30
2018-01-30T04:13:20.346Z,1.20
2018-01-30T04:15:49.286Z,1.20
2018-01-30T04:18:17.504Z,1.20
2018-01-30T04:20:45.686Z,1.20
2018-01-30T04:23:14.627Z,1.10
2018-01-30T04:25:42.881Z,1.10
2018-01-30T04:28:11.060Z,1.10
2018-01-30T04:30:39.257Z,1.40
2018-01-30T04:33:07.492Z,1.40
2018-01-30T04:35:36.447Z,1.20
2018-01-30T04:38:04.627Z,1.20
2018-01-30T04:40:32.840Z,1.10
2018-01-30T04:43:01.856Z,1.30
2018-01-30T04:45:30.040Z,1.30
2018-01-30T04:47:58.355Z,1.40
2018-01-30T04:50:26.540Z,1.30
2018-01-30T04:52:54.720Z,1.20
2018-01-30T04:55:23.700Z,0.90
2018-01-30T04:57:53.390Z,0.90
2018-01-30T05:00:21.588Z,0.80
2018-01-30T05:02:50.554Z,0.80
2018-01-30T05:05:18.742Z,0.80
2018-01-30T05:07:46.935Z,0.80
2018-01-30T05:10:15.153Z,0.80
2018-01-30T05:12:43.337Z,0.80
2018-01-30T05:15:11.507Z,0.90
2018-01-30T05:17:39.754Z,1.00
2018-01-30T05:20:08.713Z,0.90
2018-01-30T05:22:36.882Z,0.90
2018-01-30T05:25:05.109Z,0.90
2018-01-30T05:27:34.046Z,0.90
2018-01-30T05:30:02.244Z,0.80
2018-01-30T05:32:30.460Z,0.90
2018-01-30T05:34:58.639Z,0.90
2018-01-30T05:37:26.825Z,0.90
2018-01-30T05:39:55.037Z,0.90
2018-01-30T05:42:23.225Z,0.90
2018-01-30T05:44:51.387Z,0.90
2018-01-30T05:47:19.719Z,0.90
2018-01-30T05:49:47.889Z,0.90
2018-01-30T05:52:16.071Z,0.80
2018-01-30T05:54:44.824Z,0.90
2018-01-30T05:57:12.999Z,0.80
2018-01-30T05:59:41.199Z,0.90
2018-01-30T06:02:09.421Z,0.90
2018-01-30T06:04:37.603Z,0.90
2018-01-30T06:07:05.792Z,0.90
2018-01-30T06:09:34.014Z,0.90
2018-01-30T06:12:02.206Z,0.90
2018-01-30T06:14:30.397Z,1.00
2018-01-30T06:16:58.611Z,1.10
2018-01-30T06:19:26.878Z,1.20
2018-01-30T06:21:55.050Z,1.30
2018-01-30T06:24:24.022Z,1.20
2018-01-30T06:26:52.189Z,1.10
2018-01-30T06:29:20.380Z,1.20
2018-01-30T06:31:48.596Z,1.20
2018-01-30T06:34:16.798Z,1.30
2018-01-30T06:36:44.982Z,1.30
2018-01-30T06:39:13.190Z,1.30
2018-01-30T06:41:41.392Z,1.30
2018-01-30T06:44:10.358Z,1.30
2018-01-30T06:46:38.561Z,1.30
2018-01-30T06:49:07.504Z,1.20
2018-01-30T06:51:35.792Z,1.20
2018-01-30T06:54:04.001Z,1.20
2018-01-30T06:56:32.934Z,1.20
2018-01-30T06:59:01.117Z,1.20
2018-01-30T07:01:29.349Z,1.30
2018-01-30T07:03:58.282Z,1.50
2018-01-30T07:06:26.454Z,1.40
2018-01-30T07:08:54.727Z,1.50
2018-01-30T07:11:23.024Z,1.50
2018-01-30T07:13:51.201Z,1.50
2018-01-30T07:16:19.560Z,1.50
2018-01-30T07:18:47.749Z,1.40
2018-01-30T07:21:15.941Z,1.30
2018-01-30T07:23:44.177Z,1.30
2018-01-30T07:26:12.362Z,1.30
2018-01-30T07:28:40.586Z,1.20
2018-01-30T07:31:08.801Z,1.10
2018-01-30T07:33:37.055Z,1.10
2018-01-30T07:36:06.085Z,1.10
2018-01-30T07:38:34.498Z,1.10
2018-01-30T07:41:02.792Z,1.20
2018-01-30T07:43:31.133Z,1.40
2018-01-30T07:46:00.266Z,1.30
2018-01-30T07:48:28.483Z,1.30
2018-01-30T07:50:56.707Z,1.30
2018-01-30T07:53:24.985Z,1.30
2018-01-30T07:55:53.198Z,1.30
2018-01-30T07:58:22.163Z,1.40
2018-01-30T08:00:50.426Z,1.40
2018-01-30T08:03:18.633Z,1.50
2018-01-30T08:05:47.626Z,1.70
2018-01-30T08:08:16.012Z,1.70
2018-01-30T08:10:45.031Z,1.80
2018-01-30T08:13:13.222Z,1.80
2018-01-30T08:15:41.486Z,1.90
2018-01-30T08:18:09.694Z,2.00
2018-01-30T08:20:38.209Z,2.10
2018-01-30T08:23:07.173Z,2.20
2018-01-30T08:25:35.428Z,2.20
2018-01-30T08:28:03.667Z,2.30
2018-01-30T08:30:32.635Z,2.40
2018-01-30T08:33:00.814Z,2.40
2018-01-30T08:35:29.010Z,2.40
2018-01-30T08:37:57.966Z,2.60
2018-01-30T08:40:26.962Z,2.70
2018-01-30T08:42:55.307Z,2.70
2018-01-30T08:45:23.643Z,2.80
2018-01-30T08:47:51.866Z,3.00
2018-01-30T08:50:20.120Z,3.00
2018-01-30T08:52:48.322Z,3.20
2018-01-30T08:55:16.562Z,3.30
2018-01-30T08:57:48.510Z,3.50
2018-01-30T09:00:16.742Z,3.50
2018-01-30T09:02:44.973Z,3.60
2018-01-30T09:05:13.966Z,3.70
2018-01-30T09:07:42.292Z,3.70
2018-01-30T09:10:11.298Z,3.70
2018-01-30T09:12:39.519Z,3.80
2018-01-30T09:15:08.650Z,4.00
2018-01-30T09:17:37.102Z,3.90
2018-01-30T09:20:06.045Z,4.20
2018-01-30T09:22:34.265Z,4.20
2018-01-30T09:25:03.217Z,4.40
2018-01-30T09:27:31.453Z,4.40
2018-01-30T09:29:59.665Z,4.40
2018-01-30T09:32:27.948Z,4.50
2018-01-30T09:34:56.147Z,4.50
2018-01-30T09:37:24.351Z,4.50
2018-01-30T09:42:54.049Z,4.50
2018-01-30T09:45:22.325Z,4.70
2018-01-30T09:47:50.513Z,4.70
2018-01-30T09:50:18.710Z,4.80
2018-01-30T09:52:47.687Z,4.90
2018-01-30T09:55:16.647Z,5.10
2018-01-30T09:57:44.869Z,5.10
2018-01-30T10:00:13.842Z,5.30
2018-01-30T10:02:42.032Z,5.30
2018-01-30T10:05:11.018Z,5.40
2018-01-30T10:10:40.367Z,5.50
2018-01-30T10:13:08.548Z,5.70
2018-01-30T10:15:36.762Z,5.80
2018-01-30T10:18:04.966Z,5.90
2018-01-30T10:20:33.140Z,6.00
2018-01-30T10:23:02.147Z,6.30
2018-01-30T10:25:31.120Z,6.40
2018-01-30T10:27:59.318Z,6.40
2018-01-30T10:30:28.281Z,6.70
2018-01-30T10:32:56.514Z,6.60
2018-01-30T10:35:25.490Z,6.70
2018-01-30T10:37:55.390Z,6.80
2018-01-30T10:40:24.387Z,6.90
2018-01-30T10:42:52.600Z,6.90
2018-01-30T10:45:20.778Z,7.00
2018-01-30T10:47:48.986Z,7.20
2018-01-30T10:50:17.174Z,7.20
2018-01-30T10:52:45.379Z,7.30
2018-01-30T10:55:14.359Z,7.60
2018-01-30T10:57:42.546Z,7.50
2018-01-30T11:00:10.965Z,7.70
2018-01-30T11:02:39.216Z,7.80
2018-01-30T11:05:07.473Z,7.90
2018-01-30T11:07:36.424Z,7.90
2018-01-30T11:10:04.651Z,7.90
2018-01-30T11:12:33.655Z,7.90
2018-01-30T11:15:01.943Z,7.90
2018-01-30T11:17:30.152Z,8.00
2018-01-30T11:19:58.373Z,8.00
2018-01-30T11:22:27.361Z,8.20
2018-01-30T11:24:56.343Z,8.30
2018-01-30T11:27:24.550Z,8.30
2018-01-30T11:29:52.839Z,8.40
2018-01-30T11:32:21.072Z,8.50
2018-01-30T11:34:50.128Z,8.50
2018-01-30T11:37:18.384Z,8.50
2018-01-30T11:39:46.591Z,8.50
2018-01-30T11:42:14.816Z,8.40
2018-01-30T11:44:43.797Z,8.60
2018-01-30T11:47:12.760Z,8.60
2018-01-30T11:49:41.108Z,8.50
2018-01-30T11:52:09.348Z,8.60
2018-01-30T11:54:37.868Z,8.60
2018-01-30T11:57:06.052Z,8.70
2018-01-30T11:59:34.338Z,8.90
2018-01-30T12:02:02.587Z,8.90
2018-01-30T12:04:31.560Z,8.90
2018-01-30T12:07:00.530Z,8.90
2018-01-30T12:09:28.720Z,8.90
2018-01-30T12:11:56.978Z,9.10
2018-01-30T12:14:25.163Z,9.40
2018-01-30T12:16:53.399Z,9.50
2018-01-30T12:19:21.767Z,9.70
2018-01-30T12:21:49.974Z,9.80
2018-01-30T12:24:19.050Z,9.60
2018-01-30T12:26:47.263Z,9.60
2018-01-30T12:29:15.455Z,9.60
2018-01-30T12:31:44.436Z,9.40
2018-01-30T12:34:12.771Z,9.40
2018-01-30T12:36:41.053Z,9.50
2018-01-30T12:39:09.285Z,9.40
2018-01-30T12:41:37.640Z,9.50
2018-01-30T12:44:07.327Z,9.50
2018-01-30T12:46:35.551Z,9.60
2018-01-30T12:49:03.752Z,9.60
2018-01-30T12:51:31.937Z,9.70
2018-01-30T12:54:00.153Z,9.90
2018-01-30T12:56:28.383Z,9.90
2018-01-30T12:58:57.413Z,10.10
2018-01-30T13:01:25.660Z,10.10
2018-01-30T13:03:53.921Z,10.20
2018-01-30T13:06:22.117Z,10.30
2018-01-30T13:08:50.351Z,10.30
2018-01-30T13:11:19.320Z,10.30
2018-01-30T13:13:47.524Z,10.20
2018-01-30T13:16:16.525Z,10.50
2018-01-30T13:18:45.043Z,10.40
2018-01-30T13:21:13.306Z,10.50
2018-01-30T13:23:41.515Z,10.40
2018-01-30T13:26:09.770Z,10.30
2018-01-30T13:28:38.039Z,10.40
2018-01-30T13:31:06.230Z,10.30
2018-01-30T13:33:34.607Z,10.40
2018-01-30T13:36:02.866Z,10.40
2018-01-30T13:38:31.074Z,10.50
2018-01-30T13:41:00.129Z,10.40
2018-01-30T13:43:28.333Z,10.40
2018-01-30T13:45:56.513Z,10.50
2018-01-30T13:48:24.850Z,10.50
2018-01-30T13:50:53.870Z,10.60
2018-01-30T13:53:22.102Z,10.60
2018-01-30T13:55:50.293Z,10.40
2018-01-30T13:58:19.292Z,10.30
2018-01-30T14:00:48.339Z,10.40
2018-01-30T14:03:16.546Z,10.40
2018-01-30T14:05:45.530Z,10.20
2018-01-30T14:08:13.758Z,10.20
2018-01-30T14:10:42.016Z,10.40
2018-01-30T14:13:10.290Z,10.40
2018-01-30T14:15:38.786Z,10.50
2018-01-30T14:18:07.010Z,10.60
2018-01-30T14:20:35.240Z,10.50
2018-01-30T14:23:03.484Z,10.50
2018-01-30T14:25:32.444Z,10.50
2018-01-30T14:28:00.647Z,10.50
2018-01-30T14:30:29.621Z,10.40
2018-01-30T14:32:58.153Z,10.40
2018-01-30T14:35:26.353Z,10.30
2018-01-30T14:37:54.568Z,10.30
2018-01-30T14:40:23.515Z,10.20
2018-01-30T14:42:51.736Z,10.10
2018-01-30T14:45:19.945Z,10.10
2018-01-30T14:47:48.930Z,10.30
2018-01-30T14:50:17.950Z,10.50
2018-01-30T14:52:46.905Z,10.50
2018-01-30T14:55:15.105Z,10.40
2018-01-30T14:57:43.329Z,10.30
2018-01-30T15:00:11.549Z,10.00
2018-01-30T15:02:40.518Z,9.80
2018-01-30T15:05:08.755Z,9.90
2018-01-30T15:07:37.786Z,9.50
2018-01-30T15:10:06.801Z,9.50
2018-01-30T15:12:34.978Z,9.50
2018-01-30T15:15:03.950Z,9.40
2018-01-30T15:17:32.952Z,9.50
2018-01-30T15:20:01.155Z,9.40
2018-01-30T15:22:29.636Z,9.50
2018-01-30T15:24:57.904Z,9.50
2018-01-30T15:27:26.854Z,9.40
2018-01-30T15:29:55.058Z,9.40
2018-01-30T15:32:23.260Z,9.30
2018-01-30T15:34:51.467Z,9.30
2018-01-30T15:37:19.691Z,9.20
2018-01-30T15:39:47.946Z,9.10
2018-01-30T15:42:16.157Z,9.00
2018-01-30T15:44:44.374Z,8.80
2018-01-30T15:47:12.753Z,8.70
2018-01-30T15:49:40.982Z,8.70
2018-01-30T15:52:09.192Z,8.50
2018-01-30T15:54:37.393Z,8.40
2018-01-30T15:57:05.610Z,8.30
2018-01-30T15:59:34.580Z,8.00
2018-01-30T16:02:04.433Z,8.00
2018-01-30T16:04:33.457Z,7.70
2018-01-30T16:07:02.400Z,7.40
2018-01-30T16:09:30.671Z,7.40
2018-01-30T16:11:58.923Z,7.30
2018-01-30T16:14:27.961Z,7.20
2018-01-30T16:16:56.961Z,7.10
2018-01-30T16:19:25.919Z,7.00
2018-01-30T16:21:54.152Z,6.90
2018-01-30T16:24:22.374Z,6.90
2018-01-30T16:26:50.619Z,6.80
2018-01-30T16:29:19.003Z,6.80
2018-01-30T16:31:47.225Z,6.70
2018-01-30T16:34:15.439Z,6.70
2018-01-30T16:36:43.685Z,6.70
2018-01-30T16:39:12.822Z,6.50
2018-01-30T16:41:41.105Z,6.60
2018-01-30T16:44:09.344Z,6.50
2018-01-30T16:46:38.352Z,6.10
2018-01-30T16:49:06.554Z,6.10
2018-01-30T16:51:34.827Z,6.00
2018-01-30T16:54:03.052Z,6.00
2018-01-30T16:56:31.306Z,5.90
2018-01-30T16:58:59.528Z,5.80
2018-01-30T17:01:27.844Z,5.70
2018-01-30T17:03:56.061Z,5.70
2018-01-30T17:06:24.260Z,5.70
2018-01-30T17:08:52.476Z,5.60
2018-01-30T17:11:20.679Z,5.60
2018-01-30T17:13:50.445Z,5.30
2018-01-30T17:16:18.692Z,5.30
2018-01-30T17:18:47.915Z,5.20
2018-01-30T17:21:16.887Z,5.10
2018-01-30T17:23:45.854Z,5.00
2018-01-30T17:26:14.083Z,5.00
2018-01-30T17:28:42.279Z,5.00
2018-01-30T17:31:10.524Z,4.90
2018-01-30T17:33:38.832Z,4.80
2018-01-30T17:36:07.095Z,4.70
2018-01-30T17:38:35.325Z,4.60
2018-01-30T17:41:04.297Z,4.70
2018-01-30T17:43:32.511Z,4.70
2018-01-30T17:46:01.508Z,4.80
2018-01-30T17:48:30.472Z,4.90
2018-01-30T17:50:58.701Z,4.90
2018-01-30T17:53:26.926Z,4.90
2018-01-30T17:55:55.121Z,4.90
2018-01-30T17:58:24.078Z,4.70
2018-01-30T18:00:52.423Z,4.70
2018-01-30T18:03:20.632Z,4.70
2018-01-30T18:05:48.863Z,4.70
2018-01-30T18:08:17.098Z,4.60
2018-01-30T18:10:45.307Z,4.60
2018-01-30T18:13:14.295Z,4.80
2018-01-30T18:15:43.270Z,4.80
2018-01-30T18:18:11.526Z,4.80
2018-01-30T18:20:39.849Z,4.70
2018-01-30T18:23:09.939Z,4.50
2018-01-30T18:25:38.273Z,4.50
2018-01-30T18:28:06.498Z,4.40
2018-01-30T18:30:34.736Z,4.20
2018-01-30T18:33:02.966Z,4.10
2018-01-30T18:35:32.107Z,4.20
2018-01-30T18:38:06.780Z,4.20
2018-01-30T18:40:35.212Z,4.20
2018-01-30T18:43:03.400Z,4.10
2018-01-30T18:45:31.589Z,4.20
2018-01-30T18:47:59.819Z,4.20
2018-01-30T18:50:28.032Z,4.30
2018-01-30T18:52:56.281Z,4.20
2018-01-30T18:55:24.497Z,4.20
2018-01-30T18:57:52.709Z,4.20
2018-01-30T19:00:21.690Z,4.20
2018-01-30T19:02:50.716Z,4.40
2018-01-30T19:05:18.975Z,4.40
2018-01-30T19:07:47.954Z,4.50
2018-01-30T19:10:16.242Z,4.50
2018-01-30T19:12:45.226Z,4.40
2018-01-30T19:15:13.436Z,4.40
2018-01-30T19:17:41.712Z,4.50
2018-01-30T19:20:09.947Z,4.50
2018-01-30T19:22:38.323Z,4.60
2018-01-30T19:25:06.530Z,4.70
2018-01-30T19:27:35.190Z,4.70
2018-01-30T19:30:03.389Z,4.70
2018-01-30T19:32:32.518Z,4.80
2018-01-30T19:35:00.810Z,4.70
2018-01-30T19:37:29.008Z,4.90
2018-01-30T19:39:57.450Z,5.00
2018-01-30T19:42:25.636Z,5.00
2018-01-30T19:44:53.969Z,5.10
2018-01-30T19:47:22.963Z,5.30
2018-01-30T19:49:51.915Z,5.40
2018-01-30T19:52:20.136Z,5.40
2018-01-30T19:54:49.487Z,5.70
2018-01-30T19:57:17.686Z,5.70
2018-01-30T19:59:47.439Z,5.80
2018-01-30T20:02:15.712Z,5.80
2018-01-30T20:04:44.673Z,5.80
2018-01-30T20:07:13.317Z,5.70
2018-01-30T20:09:41.555Z,5.80
2018-01-30T20:12:10.588Z,5.90
2018-01-30T20:14:38.790Z,5.80
2018-01-30T20:17:07.007Z,5.90
2018-01-30T20:19:35.973Z,6.00
2018-01-30T20:22:04.147Z,6.00
2018-01-30T20:24:32.377Z,6.10
2018-01-30T20:27:00.620Z,6.10
2018-01-30T20:29:29.115Z,6.00
2018-01-30T20:31:58.220Z,5.90
2018-01-30T20:34:26.441Z,5.90
2018-01-30T20:36:54.665Z,5.90
2018-01-30T20:39:23.639Z,5.80
2018-01-30T20:41:52.695Z,5.70
2018-01-30T20:44:20.887Z,5.60
2018-01-30T20:46:49.087Z,5.60
2018-01-30T20:49:18.078Z,5.60
2018-01-30T20:51:46.400Z,5.60
2018-01-30T20:54:14.597Z,5.60
2018-01-30T20:56:42.860Z,5.50
2018-01-30T20:59:11.062Z,5.50
2018-01-30T21:01:39.281Z,5.40
2018-01-30T21:04:07.552Z,5.30
2018-01-30T21:06:36.527Z,5.30
2018-01-30T21:09:04.746Z,5.30
2018-01-30T21:11:32.946Z,5.20
2018-01-30T21:14:01.163Z,5.40
2018-01-30T21:16:30.303Z,5.40
2018-01-30T21:18:58.520Z,5.40
2018-01-30T21:21:27.025Z,5.40
2018-01-30T21:23:56.970Z,5.50
2018-01-30T21:26:25.294Z,5.50
2018-01-30T21:28:53.532Z,5.40
2018-01-30T21:31:22.820Z,5.30
2018-01-30T21:33:51.044Z,5.30
2018-01-30T21:36:19.292Z,5.30
2018-01-30T21:38:47.672Z,5.30
2018-01-30T21:41:15.873Z,5.40
2018-01-30T21:43:44.110Z,5.50
2018-01-30T21:46:12.337Z,5.60
2018-01-30T21:48:40.547Z,5.70
2018-01-30T21:51:08.852Z,5.70
2018-01-30T21:53:37.041Z,6.00
2018-01-30T21:56:05.229Z,6.10
2018-01-30T21:58:33.455Z,6.30
2018-01-30T22:01:01.682Z,6.40
2018-01-30T22:03:29.887Z,6.50
2018-01-30T22:05:58.112Z,6.80
2018-01-30T22:08:26.316Z,6.90
2018-01-30T22:10:54.516Z,7.00
2018-01-30T22:13:23.490Z,7.20
2018-01-30T22:15:51.687Z,7.10
2018-01-30T22:18:20.656Z,7.30
2018-01-30T22:20:48.895Z,7.20
2018-01-30T22:23:17.096Z,7.30
2018-01-30T22:25:45.298Z,7.30
2018-01-30T22:28:13.630Z,7.40
2018-01-30T22:30:41.815Z,7.40
2018-01-30T22:33:10.044Z,7.40
2018-01-30T22:35:38.350Z,7.50
2018-01-30T22:38:06.551Z,7.50
2018-01-30T22:40:34.767Z,7.60
2018-01-30T22:43:03.720Z,7.70
2018-01-30T22:45:31.922Z,7.60
